Time;durP1;ratioP1;P1;durP2;ratioP2;P2;SDS_P1;SDS_P2;PMS_P1;PMS_P2;Temp;Humidity;BMP_temperature;BMP_pressure;BME280_temperature;BME280_humidity;BME280_pressure;Samples;Min_cycle;Max_cycle;Signal;HPM_P1;HPM_P2
2022/05/23 00:02:21;;;;;;;8.32;5.43;;;13.60;99.90;;;;;;5013080;28;20498;-75
2022/05/23 00:04:47;;;;;;;6.38;5.13;;;13.40;99.90;;;;;;5007429;28;20435;-74
2022/05/23 00:07:24;;;;;;;8.75;5.97;;;13.30;99.90;;;;;;5008156;28;20108;-75
2022/05/23 00:09:50;;;;;;;6.90;5.45;;;13.40;99.90;;;;;;5013576;28;20030;-75
2022/05/23 00:12:16;;;;;;;8.07;6.05;;;13.50;99.90;;;;;;5001147;28;20026;-75
2022/05/23 00:14:43;;;;;;;6.03;5.30;;;13.40;99.90;;;;;;5005870;28;20049;-76
2022/05/23 00:17:13;;;;;;;10.68;5.43;;;13.20;99.90;;;;;;5009593;28;20018;-75
2022/05/23 00:19:39;;;;;;;6.20;5.40;;;13.30;99.90;;;;;;5013595;28;20030;-76
2022/05/23 00:22:05;;;;;;;6.47;5.05;;;13.40;99.90;;;;;;4997606;28;20022;-74
2022/05/23 00:24:30;;;;;;;8.02;5.72;;;13.20;99.90;;;;;;5002835;28;20104;-74
2022/05/23 00:26:56;;;;;;;7.38;5.75;;;13.10;99.90;;;;;;5000473;28;20385;-74
2022/05/23 00:29:22;;;;;;;9.32;5.82;;;13.10;99.90;;;;;;5005555;28;20137;-74
2022/05/23 00:37:21;;;;;;;7.32;5.55;;;13.30;99.90;;;;;;5002701;28;20060;-74
2022/05/23 00:39:46;;;;;;;7.20;5.72;;;13.00;99.90;;;;;;5012053;28;20033;-74
2022/05/23 00:45:04;;;;;;;9.30;6.45;;;12.90;99.90;;;;;;5000865;28;20591;-75
2022/05/23 00:47:30;;;;;;;8.75;5.57;;;12.90;99.90;;;;;;5003369;28;20031;-75
2022/05/23 00:49:55;;;;;;;9.35;5.72;;;12.80;99.90;;;;;;5011668;28;20498;-74
2022/05/23 00:52:57;;;;;;;7.78;5.55;;;12.70;99.90;;;;;;5012023;28;20029;-75
2022/05/23 00:55:26;;;;;;;7.45;5.53;;;13.00;99.90;;;;;;4963126;28;20373;-75
2022/05/23 00:57:58;;;;;;;7.80;5.88;;;12.90;99.90;;;;;;5009283;28;20030;-77
2022/05/23 01:00:24;;;;;;;9.40;5.60;;;12.80;99.90;;;;;;5001986;28;20027;-76
2022/05/23 01:02:57;;;;;;;7.93;5.40;;;12.90;99.90;;;;;;5006237;28;20026;-75
2022/05/23 01:05:24;;;;;;;6.50;5.40;;;12.70;99.90;;;;;;5005230;28;20034;-75
2022/05/23 01:07:50;;;;;;;10.82;5.68;;;12.80;99.90;;;;;;5000648;28;20393;-75
2022/05/23 01:10:15;;;;;;;9.60;5.82;;;12.70;99.90;;;;;;5000762;28;20027;-75
2022/05/23 01:12:41;;;;;;;6.65;5.25;;;12.70;99.90;;;;;;5007275;28;20366;-77
2022/05/23 01:15:28;;;;;;;7.55;5.70;;;12.80;99.90;;;;;;5004115;28;20034;-78
2022/05/23 01:17:54;;;;;;;8.10;5.72;;;12.70;99.90;;;;;;5002387;28;20034;-76
2022/05/23 01:20:20;;;;;;;7.40;5.95;;;12.80;99.90;;;;;;5015388;28;20029;-77
2022/05/23 01:22:51;;;;;;;9.40;5.43;;;13.00;99.90;;;;;;5014519;28;20124;-76
2022/05/23 01:25:33;;;;;;;7.15;5.35;;;12.60;99.90;;;;;;4999275;28;20033;-77
2022/05/23 01:27:59;;;;;;;8.07;5.35;;;12.80;99.90;;;;;;5002849;28;20033;-76
2022/05/23 01:30:25;;;;;;;8.23;5.20;;;12.80;99.90;;;;;;5006060;28;20431;-77
2022/05/23 01:32:51;;;;;;;5.80;4.97;;;13.10;99.90;;;;;;5004594;28;20033;-77
2022/05/23 01:35:17;;;;;;;8.07;5.70;;;13.00;99.90;;;;;;5000066;28;20030;-77
2022/05/23 01:37:43;;;;;;;5.95;4.68;;;13.00;99.90;;;;;;5001616;28;20190;-77
2022/05/23 01:40:12;;;;;;;8.00;5.20;;;12.80;99.90;;;;;;5006995;28;20109;-77
2022/05/23 01:42:37;;;;;;;7.47;4.97;;;12.70;99.90;;;;;;5004001;28;20022;-77
2022/05/23 01:45:04;;;;;;;7.95;5.15;;;12.80;99.90;;;;;;4996204;28;20034;-77
2022/05/23 01:47:30;;;;;;;5.57;4.80;;;12.80;99.90;;;;;;5004006;28;20037;-77
2022/05/23 01:49:56;;;;;;;7.85;4.75;;;12.70;99.90;;;;;;4998384;28;20052;-77
2022/05/23 01:52:22;;;;;;;5.50;5.00;;;12.80;99.90;;;;;;5010207;28;20029;-77
2022/05/23 01:54:47;;;;;;;6.93;5.13;;;12.70;99.90;;;;;;4999586;28;20034;-77
2022/05/23 01:57:13;;;;;;;7.13;5.65;;;12.70;99.90;;;;;;5002051;28;20026;-77
2022/05/23 02:02:24;;;;;;;5.65;4.97;;;12.50;99.90;;;;;;5006378;28;20503;-77
2022/05/23 02:04:51;;;;;;;5.25;4.15;;;12.70;99.90;;;;;;5003122;28;20041;-78
2022/05/23 02:07:16;;;;;;;5.82;4.93;;;12.70;99.90;;;;;;5011993;28;20029;-76
2022/05/23 02:09:42;;;;;;;7.20;4.57;;;12.80;99.90;;;;;;5012527;28;20026;-76
2022/05/23 02:12:09;;;;;;;5.63;4.80;;;13.00;99.90;;;;;;5010871;28;20018;-75
2022/05/23 02:14:35;;;;;;;7.15;4.68;;;12.90;99.90;;;;;;4994015;28;20030;-77
2022/05/23 02:17:00;;;;;;;7.13;5.35;;;12.90;99.90;;;;;;4994349;28;20076;-75
2022/05/23 02:19:30;;;;;;;6.05;4.40;;;12.90;99.90;;;;;;4995223;28;20027;-74
2022/05/23 02:21:55;;;;;;;7.45;4.90;;;12.90;99.90;;;;;;4999295;28;20071;-76
2022/05/23 02:24:21;;;;;;;6.35;4.35;;;13.00;99.90;;;;;;5016769;28;20014;-75
2022/05/23 02:26:46;;;;;;;4.93;4.30;;;13.10;99.90;;;;;;5016314;28;20022;-76
2022/05/23 02:29:14;;;;;;;7.15;4.72;;;13.00;99.90;;;;;;5015365;28;20048;-75
2022/05/23 02:31:39;;;;;;;5.80;3.90;;;13.10;99.90;;;;;;5013115;28;20168;-75
2022/05/23 02:34:05;;;;;;;6.07;3.90;;;13.30;99.90;;;;;;5017655;28;20072;-76
2022/05/23 02:36:31;;;;;;;5.07;3.55;;;13.70;99.90;;;;;;5013516;28;20024;-76
2022/05/23 02:38:56;;;;;;;4.10;3.50;;;13.80;99.90;;;;;;5011335;28;20064;-74
2022/05/23 02:41:22;;;;;;;4.47;3.30;;;13.90;99.90;;;;;;4998237;28;20076;-75
2022/05/23 02:43:49;;;;;;;6.82;4.20;;;14.00;99.90;;;;;;5004280;28;20396;-75
2022/05/23 02:46:14;;;;;;;5.68;3.50;;;14.10;99.90;;;;;;5005659;28;20037;-75
2022/05/23 02:48:40;;;;;;;6.03;3.83;;;14.00;99.90;;;;;;5011314;28;20077;-77
2022/05/23 02:51:06;;;;;;;6.68;3.58;;;14.00;99.90;;;;;;4998665;28;20026;-76
2022/05/23 02:53:31;;;;;;;5.50;3.67;;;13.90;99.90;;;;;;5004292;28;20045;-75
2022/05/23 02:55:57;;;;;;;5.43;3.80;;;13.60;99.90;;;;;;5005230;28;20080;-76
2022/05/23 02:58:22;;;;;;;4.35;3.95;;;13.40;99.90;;;;;;5004588;28;20022;-75
2022/05/23 03:00:48;;;;;;;4.78;3.80;;;13.30;99.90;;;;;;5003569;28;20395;-75
2022/05/23 03:03:13;;;;;;;7.03;3.92;;;13.40;99.90;;;;;;5010462;28;20037;-76
2022/05/23 03:05:44;;;;;;;6.18;3.95;;;13.60;99.90;;;;;;4999225;28;20081;-74
2022/05/23 03:08:13;;;;;;;8.27;4.00;;;13.50;99.90;;;;;;4999201;28;20115;-75
2022/05/23 03:10:39;;;;;;;8.07;4.45;;;13.50;99.90;;;;;;4996558;28;20026;-76
2022/05/23 03:13:06;;;;;;;3.97;3.33;;;13.60;99.90;;;;;;5004048;28;20034;-77
2022/05/23 03:15:31;;;;;;;7.35;3.67;;;13.60;99.90;;;;;;5005499;28;20014;-76
2022/05/23 03:17:57;;;;;;;5.65;3.65;;;13.70;99.90;;;;;;4997903;28;20022;-77
2022/05/23 03:20:23;;;;;;;5.25;4.20;;;13.60;99.90;;;;;;5008291;28;20025;-76
2022/05/23 03:28:17;;;;;;;4.78;3.75;;;13.60;99.90;;;;;;5005642;28;20179;-74
2022/05/23 03:30:44;;;;;;;6.35;3.50;;;13.70;99.90;;;;;;5003171;28;20552;-73
2022/05/23 03:33:11;;;;;;;4.70;3.88;;;13.70;99.90;;;;;;5004193;28;20531;-73
2022/05/23 03:35:37;;;;;;;5.18;3.72;;;13.80;99.90;;;;;;4997471;28;20021;-73
2022/05/23 03:38:04;;;;;;;6.60;3.30;;;13.80;99.90;;;;;;5010248;28;20040;-75
2022/05/23 03:40:30;;;;;;;3.83;3.13;;;13.70;99.90;;;;;;4996885;28;20049;-75
2022/05/23 03:42:56;;;;;;;4.63;3.55;;;13.80;99.90;;;;;;4997281;28;20034;-73
2022/05/23 03:45:23;;;;;;;3.88;3.40;;;13.90;99.90;;;;;;5004603;28;20026;-74
2022/05/23 03:47:53;;;;;;;6.53;3.63;;;14.00;99.90;;;;;;5003856;28;20029;-75
2022/05/23 03:50:21;;;;;;;7.70;3.80;;;14.10;99.90;;;;;;4997424;28;20033;-76
2022/05/23 03:52:46;;;;;;;5.00;3.20;;;14.10;99.90;;;;;;4997213;28;20018;-76
2022/05/23 03:55:12;;;;;;;3.92;2.90;;;14.00;99.90;;;;;;5010170;28;20037;-75
2022/05/23 03:57:37;;;;;;;4.53;3.53;;;14.10;99.90;;;;;;5011859;28;20026;-77
2022/05/23 04:00:06;;;;;;;5.18;3.20;;;14.10;99.90;;;;;;5010243;28;20030;-76
2022/05/23 04:02:32;;;;;;;5.55;3.65;;;13.90;99.90;;;;;;4998915;28;20026;-77
2022/05/23 04:04:57;;;;;;;7.30;3.42;;;14.00;99.90;;;;;;5012199;28;20034;-77
2022/05/23 04:07:23;;;;;;;4.80;3.22;;;14.00;99.90;;;;;;5000415;28;20088;-76
2022/05/23 04:09:49;;;;;;;6.53;3.08;;;14.00;99.90;;;;;;5014116;28;20029;-77
2022/05/23 04:12:14;;;;;;;3.53;3.00;;;14.00;99.90;;;;;;4999475;28;20023;-78
2022/05/23 04:14:40;;;;;;;3.63;2.80;;;14.00;99.90;;;;;;5011230;28;20109;-76
2022/05/23 04:17:07;;;;;;;4.47;2.70;;;14.30;99.90;;;;;;5014048;28;20435;-75
2022/05/23 04:19:33;;;;;;;4.50;3.10;;;14.30;99.90;;;;;;5015569;28;20044;-75
2022/05/23 04:21:59;;;;;;;5.07;3.08;;;14.30;99.90;;;;;;5016420;28;20026;-77
2022/05/23 04:24:24;;;;;;;4.20;3.15;;;14.00;99.90;;;;;;5006629;28;20097;-76
2022/05/23 04:26:55;;;;;;;4.63;2.95;;;14.10;99.90;;;;;;5003534;28;20140;-77
2022/05/23 04:29:21;;;;;;;3.70;3.10;;;14.30;99.90;;;;;;5014144;28;20033;-77
2022/05/23 04:31:47;;;;;;;6.00;3.15;;;14.40;99.90;;;;;;5014135;28;20058;-76
2022/05/23 04:36:56;;;;;;;6.22;3.08;;;14.40;99.90;;;;;;5014710;28;20037;-74
2022/05/23 04:39:22;;;;;;;6.55;3.22;;;14.40;99.90;;;;;;5014200;28;20061;-76
2022/05/23 04:41:47;;;;;;;4.78;3.08;;;14.50;99.90;;;;;;5000495;28;20022;-76
2022/05/23 04:44:13;;;;;;;4.60;3.13;;;14.40;99.90;;;;;;5013193;28;20245;-75
2022/05/23 04:49:41;;;;;;;4.05;2.95;;;14.50;99.90;;;;;;5008833;28;20029;-75
2022/05/23 04:49:49;;;;;;;6.00;2.80;;;14.50;99.90;;;;;;5007577;28;20032;-75
2022/05/23 04:52:19;;;;;;;6.93;2.47;;;14.60;99.90;;;;;;4994065;28;20444;-77
2022/05/23 04:54:45;;;;;;;8.02;3.63;;;14.70;99.90;;;;;;5006322;28;20056;-76
2022/05/23 04:57:11;;;;;;;6.53;3.28;;;14.80;99.90;;;;;;5005525;28;20018;-76
2022/05/23 04:59:37;;;;;;;4.68;2.58;;;14.80;99.90;;;;;;5000735;28;20507;-75
2022/05/23 05:02:03;;;;;;;4.63;2.78;;;15.00;99.90;;;;;;5002837;28;20058;-75
2022/05/23 05:04:30;;;;;;;5.60;2.92;;;15.10;99.90;;;;;;5007310;28;20053;-76
2022/05/23 05:06:56;;;;;;;4.40;3.17;;;14.90;99.90;;;;;;5005052;28;20036;-75
2022/05/23 05:09:22;;;;;;;4.45;2.88;;;14.90;99.90;;;;;;4999497;28;20025;-75
2022/05/23 05:11:47;;;;;;;5.07;3.00;;;14.80;99.90;;;;;;5001202;28;20428;-75
2022/05/23 05:14:13;;;;;;;4.28;2.80;;;14.70;99.90;;;;;;5009772;28;20106;-75
2022/05/23 05:16:38;;;;;;;5.43;3.33;;;14.70;99.90;;;;;;5012398;28;20026;-76
2022/05/23 05:19:04;;;;;;;3.75;2.60;;;14.90;99.90;;;;;;5013532;28;20037;-75
2022/05/23 05:21:29;;;;;;;6.88;3.13;;;15.10;99.90;;;;;;5012835;28;20033;-75
2022/05/23 05:23:55;;;;;;;3.03;2.65;;;15.30;99.90;;;;;;5012040;28;20026;-74
2022/05/23 05:26:21;;;;;;;5.25;2.35;;;15.50;99.90;;;;;;5013018;28;20026;-73
2022/05/23 05:28:46;;;;;;;3.33;2.60;;;15.50;99.90;;;;;;5013332;28;20061;-72
2022/05/23 05:31:23;;;;;;;3.85;2.83;;;15.60;99.90;;;;;;5011773;28;20117;-74
2022/05/23 05:34:09;;;;;;;3.80;3.05;;;15.60;99.90;;;;;;5013211;28;20025;-75
2022/05/23 05:36:41;;;;;;;14.27;3.53;;;15.60;99.90;;;;;;5013180;28;20017;-74
2022/05/23 05:39:08;;;;;;;6.07;2.92;;;15.70;99.90;;;;;;5013234;28;20033;-73
2022/05/23 05:41:40;;;;;;;5.00;2.83;;;15.70;99.90;;;;;;5012534;28;20504;-75
2022/05/23 05:44:12;;;;;;;4.68;3.15;;;15.60;99.90;;;;;;5013064;28;20077;-74
2022/05/23 05:46:41;;;;;;;3.17;2.83;;;15.60;99.90;;;;;;5013051;28;20408;-76
2022/05/23 05:49:12;;;;;;;5.40;2.60;;;15.60;99.90;;;;;;5013054;28;20391;-75
2022/05/23 05:51:40;;;;;;;3.80;2.88;;;15.70;99.90;;;;;;5012596;28;20041;-76
2022/05/23 05:54:08;;;;;;;6.50;3.25;;;15.70;99.90;;;;;;5013078;28;20140;-76
2022/05/23 05:56:34;;;;;;;4.80;2.58;;;15.60;99.90;;;;;;5012152;28;20026;-76
2022/05/23 05:59:00;;;;;;;3.33;2.70;;;15.60;99.90;;;;;;5011529;28;20057;-76
2022/05/23 06:01:26;;;;;;;3.47;2.50;;;15.50;99.90;;;;;;5006236;28;20500;-76
2022/05/23 06:03:51;;;;;;;4.10;2.58;;;15.60;99.90;;;;;;5005629;28;20049;-75
2022/05/23 06:11:44;;;;;;;6.07;2.60;;;15.80;99.90;;;;;;5001423;28;20084;-76
2022/05/23 06:14:10;;;;;;;5.15;2.88;;;15.80;99.90;;;;;;5004915;28;20022;-76
2022/05/23 06:16:37;;;;;;;4.88;3.08;;;15.80;99.90;;;;;;5002049;28;20033;-76
2022/05/23 06:19:04;;;;;;;5.60;3.10;;;15.70;99.90;;;;;;4999188;28;20053;-75
2022/05/23 06:21:30;;;;;;;7.60;3.47;;;15.60;99.90;;;;;;5010789;28;20029;-76
2022/05/23 06:23:56;;;;;;;6.13;3.90;;;15.40;99.90;;;;;;5011221;28;20472;-76
2022/05/23 06:26:24;;;;;;;4.80;3.30;;;15.30;99.90;;;;;;5012494;28;20037;-76
2022/05/23 06:28:50;;;;;;;3.58;3.08;;;15.40;99.90;;;;;;5012270;28;20083;-76
2022/05/23 06:31:16;;;;;;;6.75;3.17;;;15.30;99.90;;;;;;5010431;28;20034;-75
2022/05/23 06:33:43;;;;;;;4.00;3.47;;;15.40;99.90;;;;;;5012222;28;20495;-77
2022/05/23 06:36:10;;;;;;;3.55;2.92;;;15.50;99.90;;;;;;5000126;28;20051;-77
2022/05/23 06:38:37;;;;;;;4.57;2.80;;;15.60;99.90;;;;;;5008361;28;20030;-76
2022/05/23 06:41:04;;;;;;;5.43;3.38;;;15.80;99.90;;;;;;5010510;28;20361;-76
2022/05/23 06:43:30;;;;;;;6.65;3.28;;;16.00;99.90;;;;;;5007219;28;20500;-76
2022/05/23 06:45:56;;;;;;;5.05;3.45;;;15.90;99.90;;;;;;5004209;28;20073;-76
2022/05/23 06:48:25;;;;;;;5.72;2.92;;;16.20;99.90;;;;;;4992605;28;20034;-75
2022/05/23 06:50:51;;;;;;;6.03;3.30;;;16.40;99.90;;;;;;5003879;28;20113;-76
2022/05/23 06:53:21;;;;;;;4.65;3.25;;;16.40;99.90;;;;;;4998795;28;20033;-76
2022/05/23 06:55:47;;;;;;;5.82;3.50;;;16.60;99.90;;;;;;4998442;28;20026;-75
2022/05/23 06:58:15;;;;;;;4.18;3.58;;;16.60;99.90;;;;;;5005764;28;20524;-75
2022/05/23 07:00:41;;;;;;;3.40;2.80;;;16.60;99.90;;;;;;5004661;28;20022;-75
2022/05/23 07:03:07;;;;;;;5.60;3.75;;;16.80;99.90;;;;;;5010768;28;20036;-75
2022/05/23 07:13:49;;;;;;;7.95;3.45;;;16.90;99.90;;;;;;4998638;28;20041;-76
2022/05/23 07:16:17;;;;;;;5.32;3.13;;;16.80;99.90;;;;;;5004724;28;20105;-74
2022/05/23 07:18:43;;;;;;;4.32;3.05;;;16.80;99.90;;;;;;5004823;28;20026;-73
2022/05/23 07:21:09;;;;;;;6.15;3.42;;;17.00;99.90;;;;;;5011203;28;20022;-77
2022/05/23 07:23:35;;;;;;;4.30;3.20;;;16.90;99.90;;;;;;5011646;28;20079;-77
2022/05/23 07:26:02;;;;;;;3.25;2.70;;;16.90;99.90;;;;;;5003779;28;20109;-76
2022/05/23 07:28:28;;;;;;;5.22;3.10;;;16.90;99.90;;;;;;5005470;28;20091;-76
2022/05/23 07:30:53;;;;;;;4.05;2.70;;;17.10;99.90;;;;;;4999437;28;20030;-76
2022/05/23 07:33:20;;;;;;;5.40;3.53;;;17.20;99.90;;;;;;4998437;28;20066;-75
2022/05/23 07:35:46;;;;;;;4.80;3.20;;;16.90;99.90;;;;;;5003823;28;20465;-76
2022/05/23 07:38:11;;;;;;;5.32;3.22;;;16.70;99.90;;;;;;5005278;28;20028;-77
2022/05/23 07:40:37;;;;;;;5.10;2.97;;;16.80;99.90;;;;;;4997662;28;20030;-77
2022/05/23 07:43:02;;;;;;;4.05;2.78;;;16.70;99.90;;;;;;4998441;28;20050;-77
2022/05/23 07:45:28;;;;;;;3.55;3.00;;;16.70;99.90;;;;;;5003871;28;20027;-76
2022/05/23 07:47:53;;;;;;;7.72;3.03;;;16.70;99.90;;;;;;5006193;28;20509;-76
2022/05/23 07:50:19;;;;;;;7.22;3.70;;;16.80;99.90;;;;;;5004787;28;20081;-77
2022/05/23 08:00:31;;;;;;;5.68;3.08;;;16.90;99.90;;;;;;5007517;28;20026;-77
2022/05/23 08:00:58;;;;;;;6.30;3.40;;;16.90;99.90;;;;;;5013411;28;20048;-75
2022/05/23 08:03:24;;;;;;;6.00;3.08;;;17.10;99.90;;;;;;5014957;28;20025;-76
2022/05/23 08:05:50;;;;;;;4.50;2.90;;;17.10;99.90;;;;;;5000565;28;20072;-75
2022/05/23 08:08:15;;;;;;;6.40;3.35;;;17.10;99.90;;;;;;5014798;28;20022;-75
2022/05/23 08:10:41;;;;;;;4.93;2.95;;;17.10;99.90;;;;;;4999963;28;20431;-76
2022/05/23 08:13:09;;;;;;;4.68;2.95;;;17.60;99.90;;;;;;5014371;28;20033;-76
2022/05/23 08:15:39;;;;;;;5.32;3.28;;;18.20;99.90;;;;;;5011844;28;20033;-76
2022/05/23 08:18:07;;;;;;;5.60;3.15;;;18.60;99.90;;;;;;5004144;28;20030;-76
2022/05/23 08:20:33;;;;;;;5.30;3.20;;;18.60;99.90;;;;;;5009973;28;20093;-76
2022/05/23 08:22:59;;;;;;;4.75;3.08;;;18.40;99.90;;;;;;5004589;28;20061;-75
2022/05/23 08:25:26;;;;;;;5.63;3.28;;;18.20;99.90;;;;;;5014568;28;20040;-76
2022/05/23 08:27:53;;;;;;;4.43;3.28;;;17.80;99.90;;;;;;5003758;28;20061;-76
2022/05/23 08:30:19;;;;;;;6.75;3.15;;;17.80;99.90;;;;;;5007563;28;20018;-75
2022/05/23 08:32:45;;;;;;;4.18;3.22;;;17.80;99.90;;;;;;5003991;28;20422;-75
2022/05/23 08:35:11;;;;;;;5.05;3.25;;;18.10;99.90;;;;;;5000649;28;20117;-76
2022/05/23 08:37:38;;;;;;;4.15;3.13;;;18.30;99.90;;;;;;5015803;28;20018;-76
2022/05/23 08:40:05;;;;;;;10.50;3.63;;;18.20;99.90;;;;;;5014868;28;20391;-76
2022/05/23 08:42:56;;;;;;;4.35;3.40;;;18.00;99.90;;;;;;5005182;28;20082;-76
2022/05/23 08:45:26;;;;;;;9.80;3.97;;;18.00;99.90;;;;;;5002445;28;20480;-76
2022/05/23 08:48:03;;;;;;;4.50;3.83;;;18.40;99.90;;;;;;5014769;28;20472;-77
2022/05/23 08:50:44;;;;;;;7.05;3.40;;;18.60;99.90;;;;;;5015114;28;20361;-76
2022/05/23 08:53:20;;;;;;;5.72;3.92;;;18.60;99.90;;;;;;5017236;28;20018;-76
2022/05/23 08:55:55;;;;;;;4.95;3.42;;;18.60;99.90;;;;;;5018524;28;20037;-76
2022/05/23 08:58:34;;;;;;;5.72;3.45;;;18.70;99.90;;;;;;5002134;28;20160;-77
2022/05/23 09:01:07;;;;;;;4.85;3.30;;;19.10;99.90;;;;;;5012186;28;20057;-76
2022/05/23 09:03:42;;;;;;;5.07;3.17;;;19.50;99.90;;;;;;5004223;28;20131;-76
2022/05/23 09:06:28;;;;;;;5.20;3.33;;;19.60;99.90;;;;;;5007883;28;20567;-76
2022/05/23 09:08:58;;;;;;;4.57;2.80;;;19.50;99.90;;;;;;5007816;28;20026;-76
2022/05/23 09:11:42;;;;;;;4.32;2.97;;;19.90;99.90;;;;;;5000116;28;20030;-77
2022/05/23 09:14:10;;;;;;;3.63;3.25;;;20.20;99.90;;;;;;5010388;28;20029;-76
2022/05/23 09:16:40;;;;;;;4.75;3.45;;;20.20;99.90;;;;;;5002578;28;20125;-77
2022/05/23 09:19:27;;;;;;;6.38;3.45;;;20.10;99.90;;;;;;4995192;28;20389;-76
2022/05/23 09:22:19;;;;;;;5.05;3.22;;;20.10;99.90;;;;;;5006435;28;20113;-77
2022/05/23 09:24:55;;;;;;;6.45;3.25;;;20.00;99.90;;;;;;4993831;28;20034;-77
2022/05/23 09:28:04;;;;;;;6.22;3.33;;;20.60;99.90;;;;;;5005732;28;20035;-76
2022/05/23 09:30:30;;;;;;;4.75;3.10;;;20.90;99.90;;;;;;4987873;28;20040;-76
2022/05/23 09:33:01;;;;;;;5.20;3.15;;;21.10;99.90;;;;;;4993260;28;20027;-76
2022/05/23 09:35:36;;;;;;;5.57;2.90;;;21.10;99.90;;;;;;5012858;28;20076;-77
2022/05/23 09:38:30;;;;;;;7.27;3.00;;;21.20;99.90;;;;;;4999004;28;20022;-77
2022/05/23 09:40:56;;;;;;;4.95;2.70;;;21.30;99.90;;;;;;5018189;28;20088;-76
2022/05/23 09:49:11;;;;;;;5.22;3.00;;;21.70;99.90;;;;;;5017935;28;20113;-77
2022/05/23 09:52:00;;;;;;;4.22;2.72;;;21.60;99.90;;;;;;5016741;28;20038;-77
2022/05/23 09:54:28;;;;;;;6.35;2.72;;;21.90;99.90;;;;;;5003024;28;20018;-77
2022/05/23 09:56:56;;;;;;;5.75;2.40;;;22.30;99.90;;;;;;5012501;28;20037;-76
2022/05/23 09:59:27;;;;;;;3.05;2.60;;;22.30;99.90;;;;;;5012772;28;20094;-75
2022/05/23 10:01:53;;;;;;;4.15;2.33;;;22.50;99.90;;;;;;5002631;28;20499;-77
2022/05/23 10:04:28;;;;;;;3.58;2.50;;;22.70;99.90;;;;;;5007634;28;20125;-78
2022/05/23 10:06:54;;;;;;;3.50;2.55;;;22.20;99.90;;;;;;5012660;28;20022;-77
2022/05/23 10:09:28;;;;;;;6.53;2.80;;;22.20;99.90;;;;;;5012590;28;20369;-77
2022/05/23 10:11:58;;;;;;;3.63;2.80;;;22.20;99.90;;;;;;5000144;28;20026;-76
2022/05/23 10:14:25;;;;;;;6.55;3.05;;;22.10;99.90;;;;;;5004895;28;20033;-76
2022/05/23 10:16:56;;;;;;;5.40;2.72;;;21.50;99.90;;;;;;5004026;28;20018;-77
2022/05/23 10:19:32;;;;;;;4.65;2.97;;;21.40;99.90;;;;;;5008324;28;20388;-76
2022/05/23 10:22:15;;;;;;;5.43;3.15;;;21.40;99.90;;;;;;5008860;28;20101;-76
2022/05/23 10:24:56;;;;;;;4.50;3.03;;;21.70;99.90;;;;;;5005612;28;20037;-76
2022/05/23 10:27:52;;;;;;;4.82;2.90;;;22.20;99.90;;;;;;5006613;28;20513;-77
2022/05/23 10:30:20;;;;;;;5.95;3.13;;;22.40;99.90;;;;;;5007829;28;20054;-77
2022/05/23 10:32:50;;;;;;;7.15;3.10;;;22.70;99.90;;;;;;5010904;28;20037;-76
2022/05/23 10:35:31;;;;;;;4.10;2.85;;;22.80;99.90;;;;;;4997689;28;20068;-76
2022/05/23 10:43:28;;;;;;;4.47;2.70;;;22.90;99.90;;;;;;5014767;28;20087;-77
2022/05/23 10:46:01;;;;;;;5.90;3.08;;;22.40;99.90;;;;;;5015017;28;20022;-77
2022/05/23 10:48:39;;;;;;;4.00;2.53;;;22.20;99.90;;;;;;5008096;28;20093;-77
2022/05/23 10:51:33;;;;;;;5.20;3.00;;;22.70;99.90;;;;;;5005758;28;20492;-76
2022/05/23 10:54:32;;;;;;;4.78;2.67;;;23.00;99.90;;;;;;5010539;28;20026;-76
2022/05/23 10:57:25;;;;;;;3.90;3.42;;;22.70;99.90;;;;;;5012062;28;20026;-77
2022/05/23 11:00:03;;;;;;;3.15;2.60;;;22.60;99.90;;;;;;4999043;28;20022;-77
2022/05/23 11:02:31;;;;;;;3.53;2.85;;;22.90;99.90;;;;;;5000244;28;20025;-77
2022/05/23 11:05:35;;;;;;;4.25;3.00;;;23.30;99.90;;;;;;5012529;28;20376;-76
2022/05/23 11:08:23;;;;;;;4.85;3.13;;;23.00;99.90;;;;;;4958448;28;20434;-76
2022/05/23 11:11:14;;;;;;;4.53;2.92;;;22.90;99.90;;;;;;5011786;28;20105;-76
2022/05/23 11:14:04;;;;;;;3.65;2.80;;;23.60;99.90;;;;;;4999743;28;20022;-77
2022/05/23 11:16:48;;;;;;;5.07;3.65;;;23.60;99.90;;;;;;5013768;28;20101;-76
2022/05/23 11:19:24;;;;;;;7.13;3.67;;;23.40;99.90;;;;;;5012116;28;20025;-76
2022/05/23 11:22:09;;;;;;;6.55;3.00;;;23.90;99.90;;;;;;5013774;28;20030;-77
2022/05/23 11:25:14;;;;;;;5.38;3.30;;;24.10;99.90;;;;;;5007692;28;20463;-77
2022/05/23 11:34:42;;;;;;;6.10;3.38;;;24.00;99.90;;;;;;4973788;28;20072;-76
2022/05/23 11:39:54;;;;;;;6.10;3.08;;;23.90;99.90;;;;;;5014784;28;20026;-76
2022/05/23 11:42:22;;;;;;;5.00;2.70;;;24.40;99.90;;;;;;5013852;28;20025;-78
2022/05/23 11:44:50;;;;;;;6.93;3.10;;;24.90;99.90;;;;;;5011283;28;20104;-77
2022/05/23 11:47:21;;;;;;;3.65;2.55;;;24.90;99.90;;;;;;5004189;28;20052;-77
2022/05/23 11:50:16;;;;;;;5.97;2.63;;;24.20;99.90;;;;;;5000725;28;20064;-77
2022/05/23 11:52:47;;;;;;;6.00;2.90;;;24.90;99.90;;;;;;5013958;28;20033;-77
2022/05/23 11:55:51;;;;;;;7.53;2.83;;;24.70;99.90;;;;;;5007310;28;20076;-76
2022/05/23 11:58:40;;;;;;;4.78;3.05;;;25.20;99.90;;;;;;5008823;28;20030;-77
2022/05/23 12:01:11;;;;;;;3.92;2.60;;;24.80;99.90;;;;;;5001939;28;20040;-77
2022/05/23 12:03:52;;;;;;;5.13;2.90;;;25.70;99.90;;;;;;5005193;28;20394;-76
2022/05/23 12:06:23;;;;;;;5.35;3.05;;;25.80;99.90;;;;;;5014423;28;20168;-77
2022/05/23 12:09:16;;;;;;;5.85;3.17;;;26.10;99.90;;;;;;5014213;28;20084;-77
2022/05/23 12:11:49;;;;;;;8.50;3.30;;;25.90;99.90;;;;;;5004950;28;20058;-78
2022/05/23 12:14:42;;;;;;;5.38;3.03;;;25.50;99.90;;;;;;5015909;28;20030;-77
2022/05/23 12:17:20;;;;;;;5.95;3.00;;;25.60;99.90;;;;;;5015591;28;20034;-77
2022/05/23 12:19:55;;;;;;;3.85;2.67;;;25.30;99.90;;;;;;5014982;28;20492;-77
2022/05/23 12:22:38;;;;;;;5.07;3.30;;;25.50;99.90;;;;;;5010185;28;20397;-77
2022/05/23 12:25:10;;;;;;;5.13;2.97;;;25.60;99.90;;;;;;5007097;28;20392;-77
2022/05/23 12:28:00;;;;;;;6.35;3.33;;;25.50;99.90;;;;;;5013257;28;20026;-76
2022/05/23 12:30:26;;;;;;;3.88;3.47;;;25.80;99.90;;;;;;5013817;28;20034;-76
2022/05/23 12:33:00;;;;;;;4.43;3.13;;;25.50;99.90;;;;;;5002779;28;20032;-76
2022/05/23 12:35:45;;;;;;;5.78;3.20;;;26.20;99.90;;;;;;5006558;28;20472;-76
2022/05/23 12:38:44;;;;;;;4.77;2.80;;;26.90;99.90;;;;;;5007408;28;20060;-77
2022/05/23 12:41:34;;;;;;;4.55;2.67;;;26.20;99.90;;;;;;5012589;28;20296;-77
2022/05/23 12:44:32;;;;;;;5.93;2.53;;;25.80;99.90;;;;;;5004293;28;20029;-77
2022/05/23 12:47:21;;;;;;;3.85;2.25;;;26.40;99.90;;;;;;5008919;28;20129;-77
2022/05/23 12:50:20;;;;;;;4.82;2.42;;;25.60;99.90;;;;;;5011593;28;20101;-77
2022/05/23 12:52:57;;;;;;;6.05;2.20;;;25.60;99.90;;;;;;5015375;28;20033;-77
2022/05/23 12:55:42;;;;;;;6.50;2.67;;;25.20;99.90;;;;;;5015457;28;20407;-76
2022/05/23 12:58:33;;;;;;;4.22;2.80;;;25.00;99.90;;;;;;5016056;28;20030;-77
2022/05/23 13:01:03;;;;;;;5.93;2.30;;;25.00;99.90;;;;;;5017152;28;20038;-76
2022/05/23 13:03:32;;;;;;;4.07;2.78;;;25.30;99.90;;;;;;5015285;28;20473;-76
2022/05/23 13:06:22;;;;;;;4.55;2.55;;;26.20;99.90;;;;;;5000661;28;20026;-76
2022/05/23 13:09:09;;;;;;;5.07;2.97;;;25.70;99.90;;;;;;5000127;28;20484;-77
2022/05/23 13:11:39;;;;;;;;;;;26.30;99.90;;;;;;5001212;28;20046;-77
2022/05/23 13:14:05;;;;;;;6.00;2.45;;;26.00;99.90;;;;;;5011018;28;20600;-76
2022/05/23 13:16:37;;;;;;;4.93;2.65;;;26.10;99.90;;;;;;4994179;28;20030;-77
2022/05/23 13:22:12;;;;;;;5.25;2.70;;;25.30;99.90;;;;;;5000179;28;20077;-78
2022/05/23 13:24:59;;;;;;;5.80;2.92;;;25.00;99.90;;;;;;5013515;28;20076;-77
2022/05/23 13:27:33;;;;;;;4.35;2.55;;;24.60;99.90;;;;;;4999884;28;20487;-76
2022/05/23 13:30:19;;;;;;;6.07;2.63;;;24.10;99.90;;;;;;5012727;28;20026;-76
2022/05/23 13:32:58;;;;;;;4.72;2.60;;;24.00;99.90;;;;;;5002858;28;20065;-77
2022/05/23 13:35:24;;;;;;;4.88;2.70;;;23.80;99.90;;;;;;4998549;28;20026;-75
2022/05/23 13:37:51;;;;;;;6.40;2.67;;;23.90;99.90;;;;;;5001703;28;20030;-77
2022/05/23 13:40:25;;;;;;;5.95;2.90;;;24.10;99.90;;;;;;5006480;28;20046;-77
2022/05/23 13:43:07;;;;;;;6.32;2.33;;;24.20;99.90;;;;;;5008789;28;20040;-77
2022/05/23 13:45:33;;;;;;;5.53;2.60;;;24.40;99.90;;;;;;5013269;28;20551;-77
2022/05/23 13:48:07;;;;;;;4.07;2.47;;;24.10;99.90;;;;;;5013219;28;20038;-76
2022/05/23 13:50:41;;;;;;;4.90;2.40;;;23.70;99.90;;;;;;5011674;28;20030;-77
2022/05/23 13:53:13;;;;;;;6.20;2.75;;;23.40;99.90;;;;;;4998820;28;20396;-77
2022/05/23 13:55:44;;;;;;;3.47;2.55;;;23.40;99.90;;;;;;5012305;28;20022;-76
2022/05/23 13:58:24;;;;;;;4.05;2.38;;;23.70;99.90;;;;;;4998534;28;20046;-76
2022/05/23 14:01:01;;;;;;;4.30;2.42;;;23.50;99.90;;;;;;5013262;28;20561;-76
2022/05/23 14:03:33;;;;;;;5.97;2.65;;;23.00;99.90;;;;;;5003844;28;20601;-77
2022/05/23 14:06:00;;;;;;;7.85;2.53;;;22.80;99.90;;;;;;5006710;28;20030;-77
2022/05/23 14:08:34;;;;;;;4.72;2.47;;;22.80;99.90;;;;;;5002310;28;20072;-77
2022/05/23 14:11:16;;;;;;;5.18;2.58;;;23.00;99.90;;;;;;4999510;28;20064;-77
2022/05/23 14:13:42;;;;;;;4.15;2.67;;;22.90;99.90;;;;;;5013512;28;20034;-77